Flims, Switzerland
Current Conditions -  °F | °C
As of 6:50 PM on Thursday 23 Oct 2014 (Local Time) from LSZS Reporting Station
Broken Clouds Broken Clouds  
Wind Chill: 25°   Ceiling: 4200
Heat Index: 34°   Visibility: 6mi
Dew Point: 27°   Wind: 13mph
Humidity: 75%   Direction: 30°NNE
Pressure: 30.09"   Gusts: NA
Location:  46.84°N, 9.28°E
Report Text: LSZS 231650Z 03011KT 330V080 9999 BKN042 01/M03 Q1019
Loading
Personal Weather Stations






























Interactive Weather Map
Tropical Storm Tracking
New forecast layout! Learn more

10-Day Weather Forecast

Advertisements
Track Severe Weather on mobile